Terminal Aerodrome Forecast
Issued by NWS Houston/Galveston, TX

Home | Current Version | Previous Version | Text Only | Print | Product List | Glossary On
Versions: 1 2 3 4 5 6 7 8 9 10 11 12 13 14 15 16 17 18 19 20 21 22 23 24 25 26 27 28 29 30 31 32 33 34 35 36 37 38 39 40
000
FTUS44 KHGX 251720
TAFCLL
TAF
KCLL 251720Z 2518/2618 02010KT P6SM SKC
     FM260100 VRB05KT P6SM SKC
     FM260600 08005KT P6SM SKC
     FM261400 13010KT P6SM BKN012 BKN035=

USA.gov is the U.S. government's official web portal to all federal, state and local government web resources and services.